Time;durP1;ratioP1;P1;durP2;ratioP2;P2;SDS_P1;SDS_P2;PMS_P1;PMS_P2;Temp;Humidity;BMP_temperature;BMP_pressure;BME280_temperature;BME280_humidity;BME280_pressure;Samples;Min_cycle;Max_cycle;Signal;HPM_P1;HPM_P2
2022/05/02 00:00:15;;;;;;;19.15;9.95;;;;;;;;;;5038861;28;20215;-46
2022/05/02 00:03:00;;;;;;;14.18;8.93;;;;;;;;;;5038712;28;20204;-45
2022/05/02 00:05:28;;;;;;;14.43;9.40;;;;;;;;;;5038314;28;20239;-46
2022/05/02 00:07:55;;;;;;;14.85;8.57;;;;;;;;;;5038616;28;20213;-45
2022/05/02 00:10:22;;;;;;;19.52;8.63;;;;;;;;;;5038450;28;20200;-47
2022/05/02 00:12:50;;;;;;;14.23;8.23;;;;;;;;;;5038050;28;20205;-45
2022/05/02 00:15:17;;;;;;;14.32;8.23;;;;;;;;;;5038559;28;20205;-46
2022/05/02 00:17:56;;;;;;;14.30;8.23;;;;;;;;;;5038417;28;20208;-44
2022/05/02 00:20:34;;;;;;;12.35;8.25;;;;;;;;;;5038662;28;20220;-45
2022/05/02 00:23:04;;;;;;;16.42;8.48;;;;;;;;;;5038344;28;20204;-45
2022/05/02 00:25:31;;;;;;;11.23;8.27;;;;;;;;;;5038986;28;20298;-45
2022/05/02 00:27:59;;;;;;;14.48;9.07;;;;;;;;;;5038232;28;20263;-45
2022/05/02 00:30:28;;;;;;;16.02;9.40;;;;;;;;;;5036993;28;20251;-46
2022/05/02 00:32:56;;;;;;;14.43;8.18;;;;;;;;;;5038154;28;20213;-46
2022/05/02 00:35:24;;;;;;;13.03;8.83;;;;;;;;;;5038040;28;20216;-45
2022/05/02 00:37:51;;;;;;;15.63;9.20;;;;;;;;;;5038020;28;20263;-44
2022/05/02 00:40:19;;;;;;;15.90;9.10;;;;;;;;;;5038041;28;20209;-44
2022/05/02 00:42:47;;;;;;;13.98;8.68;;;;;;;;;;5038435;28;20271;-44
2022/05/02 00:45:15;;;;;;;14.45;8.15;;;;;;;;;;5037654;28;20312;-45
2022/05/02 00:47:54;;;;;;;12.63;8.38;;;;;;;;;;5038016;28;20201;-44
2022/05/02 00:50:37;;;;;;;11.65;8.00;;;;;;;;;;5037861;28;20587;-45
2022/05/02 00:53:07;;;;;;;16.38;8.75;;;;;;;;;;5037991;28;20537;-45
2022/05/02 00:55:35;;;;;;;13.32;8.40;;;;;;;;;;5037390;28;20205;-45
2022/05/02 00:58:03;;;;;;;19.13;8.95;;;;;;;;;;5037880;28;20200;-45
2022/05/02 01:00:32;;;;;;;10.93;8.07;;;;;;;;;;5037286;28;20577;-45
2022/05/02 01:02:59;;;;;;;13.50;8.07;;;;;;;;;;5036629;28;20213;-47
2022/05/02 01:05:27;;;;;;;12.40;8.40;;;;;;;;;;5037434;28;20238;-44
2022/05/02 01:07:55;;;;;;;12.45;8.27;;;;;;;;;;5037241;28;20217;-45
2022/05/02 01:10:24;;;;;;;13.00;7.45;;;;;;;;;;5037518;28;20201;-45
2022/05/02 01:12:52;;;;;;;15.50;8.40;;;;;;;;;;5037411;28;20312;-44
2022/05/02 01:15:19;;;;;;;11.37;7.13;;;;;;;;;;5037026;28;20208;-45
2022/05/02 01:17:46;;;;;;;11.98;7.95;;;;;;;;;;5052265;28;20208;-44
2022/05/02 01:20:14;;;;;;;13.67;8.30;;;;;;;;;;5037237;28;20201;-46
2022/05/02 01:22:42;;;;;;;13.83;8.30;;;;;;;;;;5036892;28;20209;-46
2022/05/02 01:25:10;;;;;;;17.13;8.52;;;;;;;;;;5036465;28;20323;-45
2022/05/02 01:27:37;;;;;;;12.43;8.47;;;;;;;;;;5036717;28;20636;-45
2022/05/02 01:30:05;;;;;;;13.90;8.27;;;;;;;;;;5037339;28;20205;-44
2022/05/02 01:32:32;;;;;;;12.57;8.02;;;;;;;;;;5037033;28;20263;-45
2022/05/02 01:34:59;;;;;;;12.43;8.38;;;;;;;;;;5036662;28;20204;-46
2022/05/02 01:37:26;;;;;;;14.07;8.63;;;;;;;;;;5036637;28;20209;-47
2022/05/02 01:39:53;;;;;;;18.50;9.20;;;;;;;;;;5036680;28;20647;-45
2022/05/02 01:42:20;;;;;;;14.33;8.43;;;;;;;;;;5036875;28;20189;-44
2022/05/02 01:44:48;;;;;;;14.32;7.97;;;;;;;;;;5036677;28;20212;-45
2022/05/02 01:47:16;;;;;;;12.63;8.57;;;;;;;;;;5036480;28;20216;-45
2022/05/02 01:49:43;;;;;;;12.30;8.25;;;;;;;;;;5036529;28;20279;-45
2022/05/02 01:52:10;;;;;;;14.70;8.10;;;;;;;;;;5036639;28;20545;-46
2022/05/02 01:54:37;;;;;;;15.23;8.53;;;;;;;;;;5036445;28;20200;-47
2022/05/02 01:57:05;;;;;;;11.63;8.10;;;;;;;;;;5036218;28;20705;-45
2022/05/02 01:59:32;;;;;;;11.23;7.95;;;;;;;;;;5036277;28;20200;-47
2022/05/02 02:01:59;;;;;;;10.93;7.47;;;;;;;;;;5036365;28;20268;-49
2022/05/02 02:07:14;;;;;;;10.37;7.90;;;;;;;;;;5036115;28;20225;-44
2022/05/02 02:09:41;;;;;;;14.55;8.05;;;;;;;;;;5036658;28;20573;-44
2022/05/02 02:12:08;;;;;;;13.97;8.90;;;;;;;;;;5036041;28;20204;-44
2022/05/02 02:14:36;;;;;;;12.83;7.03;;;;;;;;;;5035200;28;20204;-45
2022/05/02 02:17:03;;;;;;;16.07;8.20;;;;;;;;;;5036066;28;20263;-45
2022/05/02 02:19:30;;;;;;;12.07;8.07;;;;;;;;;;5035899;28;20197;-44
2022/05/02 02:22:16;;;;;;;10.37;7.67;;;;;;;;;;5035666;28;20201;-45
2022/05/02 02:24:46;;;;;;;13.50;8.17;;;;;;;;;;5035839;28;20642;-44
2022/05/02 02:27:14;;;;;;;14.23;7.90;;;;;;;;;;5034591;28;20688;-44
2022/05/02 02:29:42;;;;;;;11.93;7.97;;;;;;;;;;5034582;28;20697;-44
2022/05/02 02:32:09;;;;;;;13.50;8.80;;;;;;;;;;5035373;28;20235;-44
2022/05/02 02:34:36;;;;;;;15.17;8.33;;;;;;;;;;5035363;28;20274;-44
2022/05/02 02:37:03;;;;;;;14.27;8.60;;;;;;;;;;5035273;28;20208;-46
2022/05/02 02:39:31;;;;;;;12.13;8.23;;;;;;;;;;5035400;28;20230;-45
2022/05/02 02:41:58;;;;;;;15.60;8.57;;;;;;;;;;5035204;28;20219;-45
2022/05/02 02:44:25;;;;;;;16.80;8.47;;;;;;;;;;5035402;28;20204;-45
2022/05/02 02:46:52;;;;;;;10.53;7.77;;;;;;;;;;5035120;28;20224;-45
2022/05/02 02:49:19;;;;;;;13.53;8.37;;;;;;;;;;5035213;28;20224;-45
2022/05/02 02:51:47;;;;;;;12.70;8.07;;;;;;;;;;5035193;28;20230;-45
2022/05/02 02:54:14;;;;;;;11.80;7.93;;;;;;;;;;5035160;28;20215;-44
2022/05/02 02:56:42;;;;;;;11.10;7.70;;;;;;;;;;5034907;28;20212;-44
2022/05/02 02:59:09;;;;;;;14.37;8.17;;;;;;;;;;5034857;28;20643;-45
2022/05/02 03:01:36;;;;;;;14.67;8.43;;;;;;;;;;5035185;28;20217;-45
2022/05/02 03:06:01;;;;;;;14.13;8.67;;;;;;;;;;5034794;28;20643;-45
2022/05/02 03:06:51;;;;;;;14.48;8.05;;;;;;;;;;5034413;28;20303;-44
2022/05/02 03:09:19;;;;;;;18.08;8.40;;;;;;;;;;5034816;28;20200;-45
2022/05/02 03:11:46;;;;;;;14.98;8.07;;;;;;;;;;5034702;28;20215;-45
2022/05/02 03:14:13;;;;;;;15.50;8.45;;;;;;;;;;5034681;28;20205;-45
2022/05/02 03:16:40;;;;;;;12.10;8.23;;;;;;;;;;5034696;28;20220;-44
2022/05/02 03:19:07;;;;;;;22.00;15.30;;;;;;;;;;5034640;28;20223;-45
2022/05/02 03:21:34;;;;;;;36.20;21.30;;;;;;;;;;5034779;28;20212;-46
2022/05/02 03:24:01;;;;;;;15.98;10.13;;;;;;;;;;5034622;28;20259;-44
2022/05/02 03:26:28;;;;;;;16.40;9.20;;;;;;;;;;5034145;28;20592;-46
2022/05/02 03:28:55;;;;;;;19.23;11.43;;;;;;;;;;5034501;28;20251;-45
2022/05/02 03:31:23;;;;;;;21.00;10.05;;;;;;;;;;5034756;28;20216;-45
2022/05/02 03:33:50;;;;;;;17.97;9.27;;;;;;;;;;5034671;28;20231;-44
2022/05/02 03:36:17;;;;;;;13.20;9.23;;;;;;;;;;5034544;28;20208;-45
2022/05/02 03:38:44;;;;;;;13.87;9.20;;;;;;;;;;5034558;28;20624;-45
2022/05/02 03:41:11;;;;;;;33.65;10.10;;;;;;;;;;5034839;28;20592;-44
2022/05/02 03:43:39;;;;;;;31.33;9.82;;;;;;;;;;5034489;28;20661;-45
2022/05/02 03:46:06;;;;;;;17.88;8.75;;;;;;;;;;5034738;28;20220;-46
2022/05/02 03:48:33;;;;;;;11.90;8.83;;;;;;;;;;5034871;28;20562;-44
2022/05/02 03:51:01;;;;;;;17.13;9.53;;;;;;;;;;5035385;28;20244;-44
2022/05/02 03:53:29;;;;;;;16.35;9.48;;;;;;;;;;5034348;28;20205;-44
2022/05/02 03:55:56;;;;;;;17.37;9.70;;;;;;;;;;5027527;28;20239;-44
2022/05/02 03:58:23;;;;;;;19.70;9.95;;;;;;;;;;5045708;28;20533;-45
2022/05/02 04:00:50;;;;;;;16.33;10.18;;;;;;;;;;5043652;28;20236;-44
2022/05/02 04:03:17;;;;;;;17.92;10.00;;;;;;;;;;5040908;28;20728;-45
2022/05/02 04:05:44;;;;;;;16.98;9.55;;;;;;;;;;5040953;28;20338;-45
2022/05/02 04:08:12;;;;;;;14.73;10.27;;;;;;;;;;5044609;28;20258;-47
2022/05/02 04:10:39;;;;;;;16.42;10.68;;;;;;;;;;5045014;28;20224;-45
2022/05/02 04:13:06;;;;;;;14.02;10.15;;;;;;;;;;5033921;28;20559;-46
2022/05/02 04:15:34;;;;;;;17.42;10.45;;;;;;;;;;5033368;28;20224;-47
2022/05/02 04:18:01;;;;;;;14.88;10.02;;;;;;;;;;5034143;28;20248;-44
2022/05/02 04:20:28;;;;;;;15.30;9.68;;;;;;;;;;5033429;28;20621;-45
2022/05/02 04:22:56;;;;;;;14.57;9.95;;;;;;;;;;5033612;28;20525;-44
2022/05/02 04:25:23;;;;;;;12.82;9.13;;;;;;;;;;5033018;28;20298;-45
2022/05/02 04:27:50;;;;;;;15.65;9.73;;;;;;;;;;5033573;28;20248;-45
2022/05/02 04:30:17;;;;;;;13.40;9.10;;;;;;;;;;5033375;28;20233;-44
2022/05/02 04:32:44;;;;;;;10.82;9.07;;;;;;;;;;5033328;28;20256;-45
2022/05/02 04:35:11;;;;;;;12.75;9.05;;;;;;;;;;5033445;28;20225;-45
2022/05/02 04:37:38;;;;;;;13.63;8.85;;;;;;;;;;5035503;28;20286;-45
2022/05/02 04:40:06;;;;;;;11.65;7.93;;;;;;;;;;5036949;28;20221;-47
2022/05/02 04:42:33;;;;;;;16.30;8.05;;;;;;;;;;5056453;28;20311;-44
2022/05/02 04:45:00;;;;;;;11.90;7.53;;;;;;;;;;5057233;28;20293;-44
2022/05/02 04:47:27;;;;;;;11.48;7.53;;;;;;;;;;5037194;28;20228;-45
2022/05/02 04:50:02;;;;;;;13.40;7.80;;;;;;;;;;5035538;28;20792;-45
2022/05/02 04:52:29;;;;;;;12.57;8.07;;;;;;;;;;5033393;28;20228;-45
2022/05/02 04:54:56;;;;;;;12.15;7.18;;;;;;;;;;5018891;28;20233;-45
2022/05/02 04:57:24;;;;;;;11.65;7.28;;;;;;;;;;5025954;28;20233;-46
2022/05/02 04:59:51;;;;;;;15.32;7.50;;;;;;;;;;5017790;28;20229;-45
2022/05/02 05:02:18;;;;;;;11.82;7.82;;;;;;;;;;5016510;28;20225;-47
2022/05/02 05:04:45;;;;;;;12.93;7.40;;;;;;;;;;5017330;28;20236;-45
2022/05/02 05:07:13;;;;;;;11.48;7.10;;;;;;;;;;5017309;28;20224;-45
2022/05/02 05:09:40;;;;;;;11.75;7.68;;;;;;;;;;5016141;28;20221;-46
2022/05/02 05:12:16;;;;;;;11.32;7.20;;;;;;;;;;5017855;28;20202;-45
2022/05/02 05:18:32;;;;;;;12.77;7.88;;;;;;;;;;5015664;28;20217;-45
2022/05/02 05:21:06;;;;;;;15.32;7.75;;;;;;;;;;5017207;28;20190;-45
2022/05/02 05:24:21;;;;;;;12.07;7.70;;;;;;;;;;5043688;28;20202;-44
2022/05/02 05:27:12;;;;;;;13.23;7.80;;;;;;;;;;5017155;28;20590;-45
2022/05/02 05:30:00;;;;;;;11.30;7.95;;;;;;;;;;5017420;28;20387;-45
2022/05/02 05:32:42;;;;;;;11.32;6.85;;;;;;;;;;5017056;28;20211;-45
2022/05/02 05:35:11;;;;;;;10.40;7.40;;;;;;;;;;5016906;28;20707;-45
2022/05/02 05:38:03;;;;;;;11.52;7.13;;;;;;;;;;5017067;28;20205;-45
2022/05/02 05:40:36;;;;;;;10.82;6.65;;;;;;;;;;5016000;28;20502;-44
2022/05/02 05:43:12;;;;;;;7.60;6.45;;;;;;;;;;5017048;28;20227;-46
2022/05/02 05:45:48;;;;;;;8.00;6.50;;;;;;;;;;5016702;28;20248;-47
2022/05/02 05:48:26;;;;;;;12.52;6.88;;;;;;;;;;5016769;28;20228;-49
2022/05/02 05:51:25;;;;;;;7.82;6.07;;;;;;;;;;5048518;28;20240;-48
2022/05/02 05:54:21;;;;;;;9.55;6.50;;;;;;;;;;5015454;28;20201;-45
2022/05/02 05:56:57;;;;;;;12.30;6.35;;;;;;;;;;5016951;28;20213;-47
2022/05/02 05:59:36;;;;;;;10.93;5.97;;;;;;;;;;5024291;28;20200;-47
2022/05/02 06:02:03;;;;;;;11.77;6.72;;;;;;;;;;5035636;28;20200;-48
2022/05/02 06:04:34;;;;;;;9.02;6.28;;;;;;;;;;5027937;28;20327;-46
2022/05/02 06:07:02;;;;;;;11.18;6.22;;;;;;;;;;5037583;28;20231;-46
2022/05/02 06:09:31;;;;;;;9.98;6.63;;;;;;;;;;5042509;28;20226;-50
2022/05/02 06:11:58;;;;;;;7.28;6.25;;;;;;;;;;5031944;28;20239;-48
2022/05/02 06:18:27;;;;;;;9.05;5.75;;;;;;;;;;5044728;28;20328;-50
2022/05/02 06:20:14;;;;;;;5.82;4.80;;;;;;;;;;5031707;28;20770;-49
2022/05/02 06:22:42;;;;;;;9.93;5.82;;;;;;;;;;5019149;28;20695;-48
2022/05/02 06:25:10;;;;;;;7.43;5.32;;;;;;;;;;5013613;28;20299;-47
2022/05/02 06:27:39;;;;;;;7.50;5.15;;;;;;;;;;5013545;28;20252;-48
2022/05/02 06:30:08;;;;;;;10.45;5.75;;;;;;;;;;4997535;28;20683;-49
2022/05/02 06:32:36;;;;;;;6.78;4.88;;;;;;;;;;5013681;28;20225;-48
2022/05/02 06:35:05;;;;;;;11.50;5.57;;;;;;;;;;5013440;28;20233;-48
2022/05/02 06:37:46;;;;;;;11.40;6.00;;;;;;;;;;5030585;28;20290;-48
2022/05/02 06:40:37;;;;;;;9.50;5.60;;;;;;;;;;5016919;28;20235;-50
2022/05/02 06:43:23;;;;;;;9.38;5.82;;;;;;;;;;5016597;28;20243;-47
2022/05/02 06:46:19;;;;;;;11.93;6.20;;;;;;;;;;5030388;28;20255;-55
2022/05/02 06:49:16;;;;;;;10.95;6.95;;;;;;;;;;5031666;28;20773;-55
2022/05/02 06:51:48;;;;;;;9.00;6.63;;;;;;;;;;5008379;28;20236;-55
2022/05/02 06:54:36;;;;;;;11.15;6.05;;;;;;;;;;5013103;28;20287;-55
2022/05/02 06:57:15;;;;;;;14.10;6.30;;;;;;;;;;5012712;28;20769;-55
2022/05/02 06:59:53;;;;;;;8.15;5.63;;;;;;;;;;5012028;28;20610;-57
2022/05/02 07:02:38;;;;;;;9.63;6.10;;;;;;;;;;5012856;28;20279;-59
2022/05/02 07:05:11;;;;;;;10.55;6.10;;;;;;;;;;5012213;28;20253;-57
2022/05/02 07:08:05;;;;;;;7.82;6.18;;;;;;;;;;5012649;28;20329;-54
2022/05/02 07:10:37;;;;;;;8.93;6.40;;;;;;;;;;5012445;28;20217;-56
2022/05/02 07:13:32;;;;;;;13.05;6.45;;;;;;;;;;5012222;28;20759;-55
2022/05/02 07:16:12;;;;;;;13.52;5.80;;;;;;;;;;4996426;28;20303;-56
2022/05/02 07:19:02;;;;;;;10.57;6.00;;;;;;;;;;5012386;28;20277;-57
2022/05/02 07:21:29;;;;;;;13.40;6.32;;;;;;;;;;4995006;28;20571;-56
2022/05/02 07:24:05;;;;;;;12.70;6.70;;;;;;;;;;5012008;28;20228;-57
2022/05/02 07:26:34;;;;;;;12.30;5.82;;;;;;;;;;5012555;28;20229;-57
2022/05/02 07:29:03;;;;;;;8.23;6.25;;;;;;;;;;5043402;28;20611;-57
2022/05/02 07:31:31;;;;;;;8.05;5.63;;;;;;;;;;5033911;28;20220;-57
2022/05/02 07:34:01;;;;;;;10.07;6.05;;;;;;;;;;5032044;28;20212;-56
2022/05/02 07:36:31;;;;;;;11.63;6.68;;;;;;;;;;5032699;28;20323;-57
2022/05/02 07:39:06;;;;;;;9.70;5.55;;;;;;;;;;5027975;28;20239;-56
2022/05/02 07:41:35;;;;;;;10.23;5.88;;;;;;;;;;5034262;28;20251;-55
2022/05/02 07:44:07;;;;;;;9.35;5.72;;;;;;;;;;5033834;28;20238;-56
2022/05/02 07:46:36;;;;;;;8.40;5.88;;;;;;;;;;5033733;28;20682;-55
2022/05/02 07:49:06;;;;;;;12.40;6.00;;;;;;;;;;5032962;28;20548;-56
2022/05/02 07:51:40;;;;;;;11.00;5.78;;;;;;;;;;5033134;28;20228;-56
2022/05/02 07:54:14;;;;;;;13.90;6.28;;;;;;;;;;5033618;28;20293;-57
2022/05/02 07:56:41;;;;;;;13.43;5.70;;;;;;;;;;5033883;28;20633;-57
2022/05/02 07:59:10;;;;;;;9.88;5.20;;;;;;;;;;5033546;28;20292;-56
2022/05/02 08:01:38;;;;;;;9.30;5.22;;;;;;;;;;5033561;28;20706;-55
2022/05/02 08:04:05;;;;;;;11.93;5.00;;;;;;;;;;5033674;28;20260;-58
2022/05/02 08:06:48;;;;;;;10.25;5.20;;;;;;;;;;5032715;28;20791;-56
2022/05/02 08:09:46;;;;;;;4.90;4.28;;;;;;;;;;5027680;28;20312;-57
2022/05/02 08:12:13;;;;;;;7.03;4.93;;;;;;;;;;5054052;28;20239;-57
2022/05/02 08:14:46;;;;;;;9.70;4.57;;;;;;;;;;5035596;28;20300;-58
2022/05/02 08:17:22;;;;;;;11.40;4.47;;;;;;;;;;5041838;28;20248;-58
2022/05/02 08:20:13;;;;;;;10.60;4.55;;;;;;;;;;5042711;28;20224;-56
2022/05/02 08:29:00;;;;;;;9.23;4.75;;;;;;;;;;5018364;28;20256;-58
2022/05/02 08:31:51;;;;;;;9.80;4.53;;;;;;;;;;5017299;28;20316;-57
2022/05/02 08:34:33;;;;;;;9.07;5.03;;;;;;;;;;5027756;28;20287;-58
2022/05/02 08:37:29;;;;;;;8.05;4.68;;;;;;;;;;5032005;28;20225;-58
2022/05/02 08:40:22;;;;;;;6.80;4.25;;;;;;;;;;5015921;28;20245;-57
2022/05/02 08:43:16;;;;;;;8.20;4.00;;;;;;;;;;5034743;28;20221;-54
2022/05/02 08:46:10;;;;;;;16.23;5.10;;;;;;;;;;5036831;28;20216;-57
2022/05/02 08:52:08;;;;;;;10.60;5.20;;;;;;;;;;5036734;28;20268;-58
2022/05/02 08:54:53;;;;;;;8.82;4.82;;;;;;;;;;5037780;28;20191;-57
2022/05/02 08:57:44;;;;;;;8.63;5.30;;;;;;;;;;5037355;28;20200;-55
2022/05/02 09:00:45;;;;;;;10.35;5.05;;;;;;;;;;5037131;28;20201;-57
2022/05/02 09:03:37;;;;;;;7.00;4.53;;;;;;;;;;5033285;28;20224;-50
2022/05/02 09:06:42;;;;;;;9.30;4.43;;;;;;;;;;5055388;28;20228;-49
2022/05/02 09:09:37;;;;;;;7.72;4.47;;;;;;;;;;5043579;28;20255;-49
2022/05/02 09:12:23;;;;;;;5.93;4.30;;;;;;;;;;5043994;28;20231;-48
2022/05/02 09:15:36;;;;;;;7.82;4.75;;;;;;;;;;5043712;28;20224;-49
2022/05/02 09:18:21;;;;;;;8.38;4.95;;;;;;;;;;5021442;28;20263;-48
2022/05/02 09:20:54;;;;;;;6.18;4.57;;;;;;;;;;5034658;28;20247;-47
2022/05/02 09:23:30;;;;;;;8.48;5.13;;;;;;;;;;5033997;28;20290;-53
2022/05/02 09:26:06;;;;;;;8.57;5.20;;;;;;;;;;5034680;28;20239;-48
2022/05/02 09:28:39;;;;;;;7.78;5.03;;;;;;;;;;5034090;28;20242;-50
2022/05/02 09:31:34;;;;;;;9.23;5.38;;;;;;;;;;5034411;28;20236;-50
2022/05/02 09:34:17;;;;;;;9.35;6.47;;;;;;;;;;5033507;28;20244;-49
2022/05/02 09:37:04;;;;;;;8.15;5.60;;;;;;;;;;5034216;28;20683;-50
2022/05/02 09:39:47;;;;;;;7.88;5.18;;;;;;;;;;5034072;28;20320;-48
2022/05/02 09:42:39;;;;;;;6.65;5.07;;;;;;;;;;5021971;28;20636;-48
2022/05/02 09:51:44;;;;;;;17.00;5.55;;;;;;;;;;5031457;28;20297;-63
2022/05/02 09:56:37;;;;;;;7.47;4.80;;;;;;;;;;5029970;28;20275;-62
2022/05/02 09:57:17;;;;;;;8.45;4.25;;;;;;;;;;5031017;28;20282;-63
2022/05/02 10:02:36;;;;;;;8.25;4.72;;;;;;;;;;5035943;28;20204;-64
2022/05/02 10:05:07;;;;;;;11.85;4.60;;;;;;;;;;5035895;28;20201;-64
2022/05/02 10:07:38;;;;;;;7.60;4.57;;;;;;;;;;5036431;28;20213;-64
2022/05/02 10:10:11;;;;;;;8.48;4.97;;;;;;;;;;5034973;28;20555;-64
2022/05/02 10:12:53;;;;;;;5.95;4.18;;;;;;;;;;5021256;28;20223;-64
2022/05/02 10:16:07;;;;;;;24.83;4.80;;;;;;;;;;5016636;28;20252;-64
2022/05/02 10:18:58;;;;;;;9.32;4.43;;;;;;;;;;4995304;28;20201;-63
2022/05/02 10:21:59;;;;;;;10.63;3.92;;;;;;;;;;4994988;28;20632;-65
2022/05/02 10:24:36;;;;;;;9.15;4.25;;;;;;;;;;5014261;28;20212;-65
2022/05/02 10:27:15;;;;;;;9.60;4.50;;;;;;;;;;4998152;28;20228;-61
2022/05/02 10:30:03;;;;;;;11.05;4.47;;;;;;;;;;5014170;28;20267;-64
2022/05/02 10:32:52;;;;;;;11.00;4.28;;;;;;;;;;5014278;28;20205;-65
2022/05/02 10:35:21;;;;;;;8.25;4.20;;;;;;;;;;5013269;28;20209;-65
2022/05/02 10:37:56;;;;;;;7.72;4.43;;;;;;;;;;5013863;28;20209;-65
2022/05/02 10:40:40;;;;;;;6.60;4.20;;;;;;;;;;5014058;28;20662;-65
2022/05/02 10:43:11;;;;;;;7.95;3.72;;;;;;;;;;5012628;28;20268;-64
2022/05/02 10:45:40;;;;;;;5.95;4.10;;;;;;;;;;4996296;28;20268;-65
2022/05/02 10:48:19;;;;;;;9.10;4.82;;;;;;;;;;4993771;28;20292;-65
2022/05/02 10:51:20;;;;;;;8.60;4.78;;;;;;;;;;4994321;28;20237;-64
2022/05/02 10:54:08;;;;;;;8.07;4.70;;;;;;;;;;5007618;28;20587;-65
2022/05/02 10:56:38;;;;;;;8.13;4.38;;;;;;;;;;5015106;28;20193;-64
2022/05/02 10:59:06;;;;;;;8.05;4.68;;;;;;;;;;5015587;28;20216;-65
2022/05/02 11:01:45;;;;;;;6.15;3.92;;;;;;;;;;5014277;28;20201;-63
2022/05/02 11:04:28;;;;;;;6.57;4.40;;;;;;;;;;5032991;28;20615;-65
2022/05/02 11:07:12;;;;;;;5.13;4.03;;;;;;;;;;5034749;28;20283;-64
2022/05/02 11:09:55;;;;;;;6.82;4.43;;;;;;;;;;5034058;28;20227;-64
2022/05/02 11:12:26;;;;;;;8.73;4.40;;;;;;;;;;5035160;28;20184;-64
2022/05/02 11:15:09;;;;;;;6.03;4.03;;;;;;;;;;5034902;28;20189;-65
2022/05/02 11:17:58;;;;;;;8.18;4.53;;;;;;;;;;5032336;28;20197;-65
2022/05/02 11:20:43;;;;;;;6.30;4.20;;;;;;;;;;5033074;28;20251;-64
2022/05/02 11:23:29;;;;;;;7.88;4.75;;;;;;;;;;5031109;28;20267;-65
2022/05/02 11:26:22;;;;;;;7.45;4.45;;;;;;;;;;5032018;28;20212;-64
2022/05/02 11:29:05;;;;;;;6.55;3.90;;;;;;;;;;5030978;28;20674;-64
2022/05/02 11:31:40;;;;;;;9.05;4.68;;;;;;;;;;5031174;28;20250;-65
2022/05/02 11:34:19;;;;;;;9.20;5.53;;;;;;;;;;5031047;28;20259;-65
2022/05/02 11:36:52;;;;;;;5.47;3.75;;;;;;;;;;5030764;28;20189;-65
2022/05/02 11:39:34;;;;;;;8.95;3.70;;;;;;;;;;5033035;28;20193;-65
2022/05/02 11:42:09;;;;;;;5.53;4.00;;;;;;;;;;5032457;28;20200;-65
2022/05/02 11:44:56;;;;;;;9.48;3.85;;;;;;;;;;5031913;28;20196;-65
2022/05/02 11:47:53;;;;;;;8.35;3.75;;;;;;;;;;5038404;28;20192;-64
2022/05/02 11:50:25;;;;;;;10.50;4.82;;;;;;;;;;5062410;28;20701;-65
2022/05/02 11:52:55;;;;;;;6.13;4.15;;;;;;;;;;5037481;28;20529;-65
2022/05/02 11:55:30;;;;;;;10.52;4.47;;;;;;;;;;5039499;28;20214;-64
2022/05/02 11:58:07;;;;;;;9.32;4.20;;;;;;;;;;5039956;28;20197;-65
2022/05/02 12:00:36;;;;;;;6.78;3.45;;;;;;;;;;5041231;28;20207;-65
2022/05/02 12:03:12;;;;;;;7.03;3.90;;;;;;;;;;5025207;28;20543;-64
2022/05/02 12:05:46;;;;;;;11.00;4.00;;;;;;;;;;5020229;28;20220;-65
2022/05/02 12:08:32;;;;;;;6.10;3.40;;;;;;;;;;5029098;28;20230;-63
2022/05/02 12:11:11;;;;;;;9.40;3.47;;;;;;;;;;5057832;28;20592;-66
2022/05/02 12:13:42;;;;;;;5.60;3.65;;;;;;;;;;5051704;28;20246;-65
2022/05/02 12:16:15;;;;;;;5.90;3.60;;;;;;;;;;5035392;28;20228;-63
2022/05/02 12:18:53;;;;;;;7.88;3.63;;;;;;;;;;5047566;28;20228;-63
2022/05/02 12:21:23;;;;;;;6.80;3.47;;;;;;;;;;5047536;28;20659;-62
2022/05/02 12:23:52;;;;;;;5.55;3.10;;;;;;;;;;5050212;28;20245;-64
2022/05/02 12:26:23;;;;;;;5.35;2.90;;;;;;;;;;5040372;28;20286;-65
2022/05/02 12:28:59;;;;;;;7.53;3.10;;;;;;;;;;5039959;28;20255;-61
2022/05/02 12:31:28;;;;;;;6.88;2.95;;;;;;;;;;5040127;28;20220;-48
2022/05/02 12:34:07;;;;;;;9.25;3.22;;;;;;;;;;5040025;28;20298;-47
2022/05/02 12:36:43;;;;;;;6.63;3.10;;;;;;;;;;5037103;28;20243;-49
2022/05/02 12:39:17;;;;;;;4.97;3.08;;;;;;;;;;5036977;28;20216;-47
2022/05/02 12:41:59;;;;;;;8.82;2.95;;;;;;;;;;5035435;28;20229;-47
2022/05/02 12:44:38;;;;;;;6.32;3.20;;;;;;;;;;5036916;28;20220;-47
2022/05/02 12:47:07;;;;;;;7.45;3.25;;;;;;;;;;5063217;28;20262;-47
2022/05/02 12:49:41;;;;;;;4.60;2.97;;;;;;;;;;5038443;28;20302;-48
2022/05/02 12:52:08;;;;;;;5.38;3.08;;;;;;;;;;5036235;28;20232;-48
2022/05/02 12:54:35;;;;;;;6.72;3.67;;;;;;;;;;5037774;28;20225;-48
2022/05/02 13:02:46;;;;;;;7.95;3.42;;;;;;;;;;5029571;28;20260;-48
2022/05/02 13:05:17;;;;;;;7.88;3.63;;;;;;;;;;5033393;28;20316;-48
2022/05/02 13:07:45;;;;;;;6.97;3.75;;;;;;;;;;5062481;28;20232;-49
2022/05/02 13:10:29;;;;;;;9.02;3.30;;;;;;;;;;5036153;28;20263;-45
2022/05/02 13:13:12;;;;;;;6.35;2.80;;;;;;;;;;5032137;28;20217;-46
2022/05/02 13:15:42;;;;;;;5.70;3.17;;;;;;;;;;5032584;28;20224;-51
2022/05/02 13:18:14;;;;;;;5.55;3.53;;;;;;;;;;5035921;28;20272;-46
2022/05/02 13:20:58;;;;;;;8.55;3.60;;;;;;;;;;5035088;28;20205;-48
2022/05/02 13:23:36;;;;;;;7.25;3.30;;;;;;;;;;5029889;28;20229;-45
2022/05/02 13:26:18;;;;;;;6.30;3.10;;;;;;;;;;5047630;28;20727;-45
2022/05/02 13:28:50;;;;;;;5.15;3.00;;;;;;;;;;5047869;28;20232;-45
2022/05/02 13:31:27;;;;;;;5.95;2.80;;;;;;;;;;5047856;28;20310;-45
2022/05/02 13:33:59;;;;;;;6.60;3.22;;;;;;;;;;5044317;28;20239;-48
2022/05/02 13:36:28;;;;;;;7.30;3.05;;;;;;;;;;5042762;28;20670;-46
2022/05/02 13:38:57;;;;;;;6.57;3.38;;;;;;;;;;5039828;28;20298;-45
2022/05/02 13:41:43;;;;;;;4.80;2.90;;;;;;;;;;5034831;28;20689;-45
2022/05/02 13:44:30;;;;;;;6.95;2.58;;;;;;;;;;5034701;28;20574;-44
2022/05/02 13:47:05;;;;;;;4.60;3.00;;;;;;;;;;5035574;28;20256;-45
2022/05/02 13:50:03;;;;;;;8.50;2.65;;;;;;;;;;5033879;28;20240;-45
2022/05/02 13:52:52;;;;;;;7.25;3.30;;;;;;;;;;5019499;28;20303;-46
2022/05/02 13:55:39;;;;;;;4.80;2.85;;;;;;;;;;5015286;28;20225;-47
2022/05/02 13:58:29;;;;;;;6.22;3.30;;;;;;;;;;5019096;28;20282;-44
2022/05/02 14:01:35;;;;;;;12.27;4.90;;;;;;;;;;5029265;28;20264;-49
2022/05/02 14:04:19;;;;;;;10.27;4.45;;;;;;;;;;5018197;28;20315;-45
2022/05/02 14:09:44;;;;;;;8.57;3.80;;;;;;;;;;5048362;28;20612;-48
2022/05/02 14:12:22;;;;;;;7.90;3.55;;;;;;;;;;5037954;28;20220;-46
2022/05/02 14:15:06;;;;;;;4.47;3.00;;;;;;;;;;5035004;28;20950;-46
2022/05/02 14:17:40;;;;;;;4.00;2.67;;;;;;;;;;5034788;28;20236;-46
2022/05/02 14:20:26;;;;;;;4.22;2.70;;;;;;;;;;5032577;28;20287;-48
2022/05/02 14:22:53;;;;;;;8.27;2.78;;;;;;;;;;5015428;28;20205;-46
2022/05/02 14:25:27;;;;;;;5.82;2.42;;;;;;;;;;5015623;28;20205;-46
2022/05/02 14:28:20;;;;;;;2.67;2.10;;;;;;;;;;5015917;28;20266;-48
2022/05/02 14:31:03;;;;;;;3.90;2.38;;;;;;;;;;5015605;28;20201;-45
2022/05/02 14:33:34;;;;;;;3.60;2.13;;;;;;;;;;5015595;28;20251;-45
2022/05/02 14:36:02;;;;;;;4.85;2.13;;;;;;;;;;5025280;28;20207;-46
2022/05/02 14:38:30;;;;;;;4.18;2.00;;;;;;;;;;5017626;28;20209;-45
2022/05/02 14:40:59;;;;;;;3.90;2.10;;;;;;;;;;5014762;28;20221;-45
2022/05/02 14:43:26;;;;;;;4.68;2.60;;;;;;;;;;5014723;28;20539;-46
2022/05/02 14:45:53;;;;;;;6.15;2.30;;;;;;;;;;5015098;28;20201;-45
2022/05/02 14:48:22;;;;;;;3.47;2.47;;;;;;;;;;5014727;28;20201;-46
2022/05/02 14:50:52;;;;;;;7.45;2.40;;;;;;;;;;5014738;28;20233;-46
2022/05/02 14:53:21;;;;;;;3.08;2.22;;;;;;;;;;5015148;28;20267;-45
2022/05/02 14:55:56;;;;;;;6.70;3.63;;;;;;;;;;5015448;28;20201;-46
2022/05/02 14:58:28;;;;;;;5.35;3.30;;;;;;;;;;5014943;28;20215;-45
2022/05/02 15:01:00;;;;;;;3.95;2.17;;;;;;;;;;5022444;28;20523;-46
2022/05/02 15:03:30;;;;;;;5.88;2.03;;;;;;;;;;5033961;28;20644;-45
2022/05/02 15:06:03;;;;;;;2.47;1.60;;;;;;;;;;5034712;28;20600;-46
2022/05/02 15:09:15;;;;;;;2.17;1.92;;;;;;;;;;5034570;28;20204;-47
2022/05/02 15:12:13;;;;;;;4.10;1.77;;;;;;;;;;4988584;28;20539;-47
2022/05/02 15:15:19;;;;;;;2.08;1.70;;;;;;;;;;4977523;28;20210;-46
2022/05/02 15:17:59;;;;;;;1.95;1.73;;;;;;;;;;4986793;28;20645;-47
2022/05/02 15:20:31;;;;;;;4.85;2.25;;;;;;;;;;4965158;28;20282;-47
2022/05/02 15:23:01;;;;;;;3.65;1.90;;;;;;;;;;4963099;28;20236;-50
2022/05/02 15:25:29;;;;;;;3.45;1.77;;;;;;;;;;4978991;28;20646;-51
2022/05/02 15:36:50;;;;;;;4.72;2.10;;;;;;;;;;4980411;28;20218;-48
2022/05/02 15:39:24;;;;;;;4.38;2.05;;;;;;;;;;4974198;28;20233;-53
2022/05/02 15:41:57;;;;;;;4.93;2.25;;;;;;;;;;4978281;28;20218;-50
2022/05/02 15:44:25;;;;;;;7.05;2.55;;;;;;;;;;4981979;28;20232;-49
2022/05/02 15:47:06;;;;;;;4.90;2.30;;;;;;;;;;4980167;28;20346;-51
2022/05/02 15:49:55;;;;;;;4.18;1.92;;;;;;;;;;4978872;28;20250;-51
2022/05/02 15:52:25;;;;;;;22.73;2.85;;;;;;;;;;5030797;28;20286;-50
2022/05/02 15:55:03;;;;;;;3.42;2.15;;;;;;;;;;5032165;28;20243;-51
2022/05/02 15:57:37;;;;;;;9.57;2.80;;;;;;;;;;5029539;28;20737;-49
2022/05/02 16:00:14;;;;;;;4.60;2.30;;;;;;;;;;5029656;28;20229;-50
2022/05/02 16:03:05;;;;;;;5.10;2.58;;;;;;;;;;5030390;28;20263;-50
2022/05/02 16:05:34;;;;;;;5.07;2.50;;;;;;;;;;5028493;28;20244;-49
2022/05/02 16:11:02;;;;;;;4.03;2.38;;;;;;;;;;5033309;28;20274;-49